Marco Polo — C6JZ7 — position and weather

sailwx.info

Track history (hours):
 
Tides and Currents Weather Stations Pressure Air Temp Water Temp Dewpoint Dewpoint Depression Visibility Wind Speed Wind Dir Waves Ship Positions

Marco Polo

Operator: Orient Lines

Last reported at 2014-Oct-22 23:12 UTC. Time now 2014-Oct-23 11:06 UTC.
Position N 60°01' E 026°46'.

Type: Passenger vessel. MMSI: 308693000.

Date/timePositionNaut miles runAvg speedWind from/ knotsBaromVisibWave heightAir tempDewpointWater temp
2014-Oct-22 23:12N 60°01' E 026°46'10113.2
2014-Oct-22 15:32N 59°57' E 030°07'2 0.6
2014-Oct-22 12:13N 59°57' E 030°12'0 0.0
2014-Oct-21 15:28N 59°57' E 030°12'0 0.0
2014-Oct-21 14:09N 59°57' E 030°12'0 0.0
2014-Oct-21 13:33N 59°57' E 030°12'0 0.0
2014-Oct-21 12:15N 59°57' E 030°12'0 0.0
2014-Oct-21 11:32N 59°57' E 030°12'0 0.0
2014-Oct-21 09:19N 59°57' E 030°12'0 0.0
2014-Oct-21 08:31N 59°57' E 030°12'0 0.0
2014-Oct-21 06:30N 59°57' E 030°12'0 0.0
2014-Oct-21 05:30N 59°57' E 030°12'0 0.0
2014-Oct-21 04:29N 59°57' E 030°12'0 0.0
2014-Oct-21 03:29N 59°57' E 030°12'10411.7
2014-Oct-20 18:33N 59°60' E 026°43'6414.7
2014-Oct-20 14:14N 59°39' E 024°44'912.7
2014-Oct-20 13:33N 59°31' E 024°45'4 3.6
2014-Oct-20 12:32N 59°27' E 024°46'0 0.0
2014-Oct-20 11:29N 59°27' E 024°46'0 0.0
2014-Oct-20 10:31N 59°27' E 024°46'0 0.0
2014-Oct-20 09:31N 59°27' E 024°46'0 0.0
2014-Oct-20 08:27N 59°27' E 024°46'0 0.0
2014-Oct-20 07:33N 59°27' E 024°46'0 0.0
2014-Oct-20 06:32N 59°27' E 024°46'0 0.4
2014-Oct-20 05:33N 59°27' E 024°46'40015.8
2014-Oct-19 04:09N 55°27' E 014°51'1616.2
2014-Oct-19 03:10N 55°16' E 014°30'1016.4
2014-Oct-19 02:33N 55°08' E 014°19'8415.9
2014-Oct-18 21:17N 54°26' E 012°13'1215.9
2014-Oct-18 20:33N 54°16' E 012°04'5 5.0
2014-Oct-18 19:30N 54°11' E 012°06'0 0.0
2014-Oct-18 18:24N 54°11' E 012°06'0 0.0
2014-Oct-18 17:12N 54°11' E 012°06'0 0.0
2014-Oct-18 16:29N 54°11' E 012°06'0 0.0
2014-Oct-18 15:08N 54°11' E 012°06'0 0.0
2014-Oct-18 14:22N 54°11' E 012°06'0 0.0
2014-Oct-18 13:28N 54°11' E 012°06'0 0.0
2014-Oct-18 12:30N 54°11' E 012°06'0 0.0
2014-Oct-18 11:27N 54°11' E 012°06'0 0.0
2014-Oct-18 10:21N 54°11' E 012°06'0 0.0
2014-Oct-18 09:32N 54°11' E 012°06'0 0.0
2014-Oct-18 08:33N 54°11' E 012°06'0 0.0
2014-Oct-18 07:33N 54°11' E 012°06'0 0.2
2014-Oct-18 06:32N 54°10' E 012°06'10 9.7
2014-Oct-18 05:33N 54°18' E 011°55'11410.4
2014-Oct-17 18:34N 56°12' E 012°11'1616.3
2014-Oct-17 17:34N 56°05' E 012°37'1716.6
2014-Oct-17 16:33N 55°48' E 012°43'7 7.0
2014-Oct-17 15:31N 55°42' E 012°36'0 0.0
2014-Oct-17 14:32N 55°42' E 012°36'0 0.0
2014-Oct-17 13:31N 55°42' E 012°36'0 0.0
2014-Oct-17 12:31N 55°42' E 012°36'0 0.0
2014-Oct-17 11:33N 55°42' E 012°36'0 0.0
2014-Oct-17 10:33N 55°42' E 012°36'2 1.8
2014-Oct-17 09:33N 55°43' E 012°39'1515.4
2014-Oct-17 08:33N 55°59' E 012°37'1514.5
2014-Oct-17 07:33N 56°10' E 012°22'1716.7
2014-Oct-17 06:33N 56°22' E 012°00'2017.6
2014-Oct-17 05:26N 56°42' E 011°53'1517.3
2014-Oct-17 04:33N 56°56' E 011°43'3716.6
2014-Oct-17 02:20N 57°30' E 011°17'2016.9
2014-Oct-17 01:10N 57°44' E 010°51'914.6
2014-Oct-17 00:33N 57°48' E 010°36'1515.0
2014-Oct-16 23:33N 57°44' E 010°09'28215.7
2014-Oct-16 05:33N 54°06' E 004°49'16616.5
2014-Oct-15 19:32N 51°52' E 002°06'1615.9
2014-Oct-15 18:33N 51°51' E 001°41'1414.3
2014-Oct-15 17:34N 51°40' E 001°25'1917.9
2014-Oct-15 16:31N 51°30' E 001°00'1615.8
2014-Oct-15 15:32N 51°30' E 000°36'9 9.2
2014-Oct-15 14:33N 51°27' E 000°22'0 0.0
2014-Oct-15 13:33N 51°27' E 000°22'0 0.0
2014-Oct-15 12:33N 51°27' E 000°22'0 0.0
2014-Oct-15 11:33N 51°27' E 000°22'0 0.0
2014-Oct-15 10:33N 51°27' E 000°22'0 0.0
2014-Oct-15 09:33N 51°27' E 000°22'0 0.0
2014-Oct-15 08:33N 51°27' E 000°22'0 0.0
2014-Oct-15 07:33N 51°27' E 000°22'0 0.0
2014-Oct-15 06:33N 51°27' E 000°22'1 1.5
2014-Oct-15 05:33N 51°27' E 000°24'10 9.8
2014-Oct-15 04:33N 51°30' E 000°39'1414.1
2014-Oct-15 03:33N 51°30' E 001°02'1716.6
2014-Oct-15 02:33N 51°39' E 001°24'1514.7
2014-Oct-15 01:33N 51°51' E 001°39'1211.9
2014-Oct-15 00:33N 51°51' E 001°58'51115.9
2014-Oct-13 16:28N 58°54' E 010°22'1314.7
2014-Oct-13 15:33N 59°06' E 010°33'1615.9
2014-Oct-13 14:33N 59°22' E 010°34'3014.5
2014-Oct-13 12:28N 59°52' E 010°38'4 0.7
2014-Oct-13 07:22N 59°54' E 010°44'0 0.0
2014-Oct-13 06:09N 59°54' E 010°44'1 0.7
2014-Oct-13 04:33N 59°54' E 010°42'21 9.6
2014-Oct-13 02:23N 59°33' E 010°37'1315.9
2014-Oct-13 01:33N 59°20' E 010°36'1514.6
2014-Oct-13 00:33N 59°05' E 010°35'  
Track history (hours):
 
Tides and Currents Weather Stations Pressure Air Temp Water Temp Dewpoint Dewpoint Depression Visibility Wind Speed Wind Dir Waves Ship Positions

Marco Polo

Operator: Orient Lines

Last reported at 2014-Oct-22 23:12 UTC. Time now 2014-Oct-23 11:06 UTC.
Position N 60°01' E 026°46'.

Type: Passenger vessel. MMSI: 308693000.

Date/timePositionNaut miles runAvg speedWind from/ knotsBaromVisibWave heightAir tempDewpointWater temp
2014-Oct-22 23:12N 60°01' E 026°46'10113.2
2014-Oct-22 15:32N 59°57' E 030°07'2 0.6
2014-Oct-22 12:13N 59°57' E 030°12'0 0.0
2014-Oct-21 15:28N 59°57' E 030°12'0 0.0
2014-Oct-21 14:09N 59°57' E 030°12'0 0.0
2014-Oct-21 13:33N 59°57' E 030°12'0 0.0
2014-Oct-21 12:15N 59°57' E 030°12'0 0.0
2014-Oct-21 11:32N 59°57' E 030°12'0 0.0
2014-Oct-21 09:19N 59°57' E 030°12'0 0.0
2014-Oct-21 08:31N 59°57' E 030°12'0 0.0
2014-Oct-21 06:30N 59°57' E 030°12'0 0.0
2014-Oct-21 05:30N 59°57' E 030°12'0 0.0
2014-Oct-21 04:29N 59°57' E 030°12'0 0.0
2014-Oct-21 03:29N 59°57' E 030°12'10411.7
2014-Oct-20 18:33N 59°60' E 026°43'6414.7
2014-Oct-20 14:14N 59°39' E 024°44'912.7
2014-Oct-20 13:33N 59°31' E 024°45'4 3.6
2014-Oct-20 12:32N 59°27' E 024°46'0 0.0
2014-Oct-20 11:29N 59°27' E 024°46'0 0.0
2014-Oct-20 10:31N 59°27' E 024°46'0 0.0
2014-Oct-20 09:31N 59°27' E 024°46'0 0.0
2014-Oct-20 08:27N 59°27' E 024°46'0 0.0
2014-Oct-20 07:33N 59°27' E 024°46'0 0.0
2014-Oct-20 06:32N 59°27' E 024°46'0 0.4
2014-Oct-20 05:33N 59°27' E 024°46'40015.8
2014-Oct-19 04:09N 55°27' E 014°51'1616.2
2014-Oct-19 03:10N 55°16' E 014°30'1016.4
2014-Oct-19 02:33N 55°08' E 014°19'8415.9
2014-Oct-18 21:17N 54°26' E 012°13'1215.9
2014-Oct-18 20:33N 54°16' E 012°04'5 5.0
2014-Oct-18 19:30N 54°11' E 012°06'0 0.0
2014-Oct-18 18:24N 54°11' E 012°06'0 0.0
2014-Oct-18 17:12N 54°11' E 012°06'0 0.0
2014-Oct-18 16:29N 54°11' E 012°06'0 0.0
2014-Oct-18 15:08N 54°11' E 012°06'0 0.0
2014-Oct-18 14:22N 54°11' E 012°06'0 0.0
2014-Oct-18 13:28N 54°11' E 012°06'0 0.0
2014-Oct-18 12:30N 54°11' E 012°06'0 0.0
2014-Oct-18 11:27N 54°11' E 012°06'0 0.0
2014-Oct-18 10:21N 54°11' E 012°06'0 0.0
2014-Oct-18 09:32N 54°11' E 012°06'0 0.0
2014-Oct-18 08:33N 54°11' E 012°06'0 0.0
2014-Oct-18 07:33N 54°11' E 012°06'0 0.2
2014-Oct-18 06:32N 54°10' E 012°06'10 9.7
2014-Oct-18 05:33N 54°18' E 011°55'11410.4
2014-Oct-17 18:34N 56°12' E 012°11'1616.3
2014-Oct-17 17:34N 56°05' E 012°37'1716.6
2014-Oct-17 16:33N 55°48' E 012°43'7 7.0
2014-Oct-17 15:31N 55°42' E 012°36'0 0.0
2014-Oct-17 14:32N 55°42' E 012°36'0 0.0
2014-Oct-17 13:31N 55°42' E 012°36'0 0.0
2014-Oct-17 12:31N 55°42' E 012°36'0 0.0
2014-Oct-17 11:33N 55°42' E 012°36'0 0.0
2014-Oct-17 10:33N 55°42' E 012°36'2 1.8
2014-Oct-17 09:33N 55°43' E 012°39'1515.4
2014-Oct-17 08:33N 55°59' E 012°37'1514.5
2014-Oct-17 07:33N 56°10' E 012°22'1716.7
2014-Oct-17 06:33N 56°22' E 012°00'2017.6
2014-Oct-17 05:26N 56°42' E 011°53'1517.3
2014-Oct-17 04:33N 56°56' E 011°43'3716.6
2014-Oct-17 02:20N 57°30' E 011°17'2016.9
2014-Oct-17 01:10N 57°44' E 010°51'914.6
2014-Oct-17 00:33N 57°48' E 010°36'1515.0
2014-Oct-16 23:33N 57°44' E 010°09'28215.7
2014-Oct-16 05:33N 54°06' E 004°49'16616.5
2014-Oct-15 19:32N 51°52' E 002°06'1615.9
2014-Oct-15 18:33N 51°51' E 001°41'1414.3
2014-Oct-15 17:34N 51°40' E 001°25'1917.9
2014-Oct-15 16:31N 51°30' E 001°00'1615.8
2014-Oct-15 15:32N 51°30' E 000°36'9 9.2
2014-Oct-15 14:33N 51°27' E 000°22'0 0.0
2014-Oct-15 13:33N 51°27' E 000°22'0 0.0
2014-Oct-15 12:33N 51°27' E 000°22'0 0.0
2014-Oct-15 11:33N 51°27' E 000°22'0 0.0
2014-Oct-15 10:33N 51°27' E 000°22'0 0.0
2014-Oct-15 09:33N 51°27' E 000°22'0 0.0
2014-Oct-15 08:33N 51°27' E 000°22'0 0.0
2014-Oct-15 07:33N 51°27' E 000°22'0 0.0
2014-Oct-15 06:33N 51°27' E 000°22'1 1.5
2014-Oct-15 05:33N 51°27' E 000°24'10 9.8
2014-Oct-15 04:33N 51°30' E 000°39'1414.1
2014-Oct-15 03:33N 51°30' E 001°02'1716.6
2014-Oct-15 02:33N 51°39' E 001°24'1514.7
2014-Oct-15 01:33N 51°51' E 001°39'1211.9
2014-Oct-15 00:33N 51°51' E 001°58'51115.9
2014-Oct-13 16:28N 58°54' E 010°22'1314.7
2014-Oct-13 15:33N 59°06' E 010°33'1615.9
2014-Oct-13 14:33N 59°22' E 010°34'3014.5
2014-Oct-13 12:28N 59°52' E 010°38'4 0.7
2014-Oct-13 07:22N 59°54' E 010°44'0 0.0
2014-Oct-13 06:09N 59°54' E 010°44'1 0.7
2014-Oct-13 04:33N 59°54' E 010°42'21 9.6
2014-Oct-13 02:23N 59°33' E 010°37'1315.9
2014-Oct-13 01:33N 59°20' E 010°36'1514.6
2014-Oct-13 00:33N 59°05' E 010°35'  

Dump ship's entire track history